Main page
METAR-TAF:

METAR-TAF

Airports :

Athens International Airport

Athens, Greece

latitude: 37-56N, longitude: 023-56E, elevation: 94 m

Current weather observation

The report was made 41 minutes ago, at 06:20 UTC
Wind 16 kt from the Northeast
Temperature 26°C
Humidity 54%
Pressure 1011 hPa
Visibility 10 km or more
Few clouds at a height of 3000 ft

METAR: LGAV 190620Z 04016KT 9999 FEW030 26/16 Q1011 NOSIG

Time: 10:01 (07:01 UTC)

Forecast

The report was made 2 hours and 1 minutes ago, at 05:00 UTC
Forecast valid from 19 at 06 UTC to 20 at 06 UTC
Wind 16 kt from the North
Visibility 10 km or more
Few clouds at a height of 2000 ft
Probability 30% :
Temporary
from 19 at 09 UTC to 19 at 12 UTC
Visibility: 5000 m
Few clouds at a height of 1800 ft, Cumulonimbus.
Scattered clouds at a height of 2000 ft
Broken clouds at a height of 7000 ft
thunderstorm, rain

TAF: LGAV 190500Z 1906/2006 01016KT 9999 FEW020 PROB30 TEMPO 1909/1912 5000 TSRA FEW018CB SCT020 BKN070

Weather observations and forecasts of more than 4000 airports (METAR and TAF reports).

The available stations are represented by yellow and red dots on the map.

Hover mouse over dot to see the name of the station.

Then click to see weather observations and forecasts.

To change the map : click on the green buttons with a black cross to zoom in, on the green button with a dash to zoom out, or on the green arrows for adjacent maps.


METAR-TAF: